Time;durP1;ratioP1;P1;durP2;ratioP2;P2;SDS_P1;SDS_P2;PMS_P1;PMS_P2;Temp;Humidity;BMP_temperature;BMP_pressure;BME280_temperature;BME280_humidity;BME280_pressure;Samples;Min_cycle;Max_cycle;Signal;HPM_P1;HPM_P2
2024/01/30 00:00:08;;;;;;;4.65;0.80;;;26.20;47.40;;;;;;5060699;28;20069;-61
2024/01/30 00:02:34;;;;;;;1.73;0.60;;;26.20;47.20;;;;;;5061595;28;20105;-60
2024/01/30 00:05:01;;;;;;;2.15;0.90;;;26.10;47.80;;;;;;5063185;28;20085;-60
2024/01/30 00:07:27;;;;;;;2.83;0.80;;;26.10;48.00;;;;;;5069849;28;20073;-61
2024/01/30 00:09:54;;;;;;;1.33;0.60;;;26.00;47.50;;;;;;5065926;28;20081;-60
2024/01/30 00:12:21;;;;;;;6.75;0.80;;;25.90;47.60;;;;;;5064040;28;20069;-60
2024/01/30 00:14:48;;;;;;;8.45;0.90;;;25.80;47.80;;;;;;5065912;28;20101;-60
2024/01/30 00:17:15;;;;;;;6.22;0.80;;;26.30;47.50;;;;;;5062421;28;20122;-61
2024/01/30 00:19:41;;;;;;;1.77;0.88;;;27.60;45.90;;;;;;5061776;28;20123;-60
2024/01/30 00:22:08;;;;;;;7.20;1.00;;;27.20;45.60;;;;;;5064969;28;20471;-61
2024/01/30 00:24:34;;;;;;;0.93;0.80;;;26.50;46.60;;;;;;5063952;28;20077;-62
2024/01/30 00:27:00;;;;;;;0.98;0.80;;;26.20;47.10;;;;;;5061732;28;20099;-61
2024/01/30 00:29:30;;;;;;;4.03;1.10;;;26.50;47.00;;;;;;5067065;28;20073;-61
2024/01/30 00:31:56;;;;;;;1.73;0.70;;;27.00;46.40;;;;;;5060792;28;20533;-64
2024/01/30 00:34:23;;;;;;;5.85;1.15;;;26.80;46.60;;;;;;5061966;28;20092;-62
2024/01/30 00:36:49;;;;;;;4.47;1.15;;;26.20;47.20;;;;;;5068044;28;20081;-60
2024/01/30 00:39:16;;;;;;;9.00;0.93;;;25.50;48.10;;;;;;5062564;28;20154;-60
2024/01/30 00:41:42;;;;;;;3.05;1.33;;;25.20;49.30;;;;;;5062912;28;20120;-60
2024/01/30 00:44:09;;;;;;;2.03;0.95;;;24.90;49.70;;;;;;5061219;28;20548;-60
2024/01/30 00:46:35;;;;;;;8.43;1.55;;;24.70;50.10;;;;;;5063738;28;20094;-61
2024/01/30 00:49:02;;;;;;;9.23;1.45;;;24.50;50.40;;;;;;5065542;28;20069;-61
2024/01/30 00:51:29;;;;;;;8.80;1.30;;;24.30;50.70;;;;;;5067870;28;20448;-61
2024/01/30 00:53:56;;;;;;;7.78;1.80;;;24.20;51.20;;;;;;5063613;28;20073;-61
2024/01/30 00:56:23;;;;;;;10.77;2.78;;;24.00;51.70;;;;;;5064821;28;20077;-61
2024/01/30 00:58:50;;;;;;;16.15;3.00;;;23.80;51.80;;;;;;5064255;28;20214;-60
2024/01/30 01:01:16;;;;;;;11.60;3.10;;;23.60;52.30;;;;;;5061957;28;20096;-63
2024/01/30 01:03:43;;;;;;;12.85;9.65;;;23.50;53.00;;;;;;5061644;28;20101;-63
2024/01/30 01:06:10;;;;;;;12.90;3.47;;;23.30;53.00;;;;;;5060489;28;20077;-62
2024/01/30 01:08:37;;;;;;;12.05;3.33;;;23.10;53.20;;;;;;5062503;28;20564;-62
2024/01/30 01:11:04;;;;;;;15.18;2.95;;;22.90;53.60;;;;;;5066321;28;20536;-61
2024/01/30 01:13:30;;;;;;;14.35;2.70;;;22.70;54.60;;;;;;5058198;28;20161;-63
2024/01/30 01:15:56;;;;;;;18.35;3.05;;;22.50;55.80;;;;;;5060626;28;20571;-62
2024/01/30 01:18:23;;;;;;;17.90;4.25;;;22.40;56.60;;;;;;5062111;28;20076;-59
2024/01/30 01:20:50;;;;;;;68.40;45.70;;;22.20;57.40;;;;;;5060063;28;20433;-59
2024/01/30 01:23:16;;;;;;;38.28;30.30;;;22.10;58.30;;;;;;5063465;28;20112;-63
2024/01/30 01:25:43;;;;;;;41.38;11.82;;;21.90;58.80;;;;;;5068100;28;20126;-63
2024/01/30 01:28:09;;;;;;;24.50;6.32;;;21.70;59.40;;;;;;5063414;28;20122;-62
2024/01/30 01:30:35;;;;;;;40.25;6.95;;;21.60;60.30;;;;;;5063912;28;20080;-63
2024/01/30 01:33:02;;;;;;;32.15;6.20;;;21.40;61.10;;;;;;5062880;28;20158;-64
2024/01/30 01:35:28;;;;;;;37.83;5.57;;;21.20;62.20;;;;;;5063110;28;20156;-63
2024/01/30 01:37:55;;;;;;;35.42;5.80;;;21.10;63.10;;;;;;5060836;28;20186;-63
2024/01/30 01:40:26;;;;;;;29.17;5.80;;;21.00;62.60;;;;;;5063438;28;20069;-62
2024/01/30 01:42:53;;;;;;;33.90;6.45;;;21.00;63.00;;;;;;5063730;28;20116;-62
2024/01/30 01:45:21;;;;;;;45.47;6.68;;;20.90;62.60;;;;;;5061948;28;20126;-62
2024/01/30 01:47:54;;;;;;;54.90;13.57;;;20.70;64.70;;;;;;5064868;28;20139;-63
2024/01/30 01:50:21;;;;;;;35.22;7.00;;;20.70;65.50;;;;;;5061673;28;20073;-63
2024/01/30 01:52:49;;;;;;;41.65;7.30;;;20.50;65.60;;;;;;5061511;28;20073;-61
2024/01/30 01:55:21;;;;;;;47.70;7.43;;;20.40;65.90;;;;;;5063043;28;20075;-60
2024/01/30 01:57:48;;;;;;;50.17;7.72;;;20.30;66.60;;;;;;5061821;28;20122;-61
2024/01/30 02:00:15;;;;;;;56.00;8.50;;;20.20;67.60;;;;;;5062650;28;20207;-61
2024/01/30 02:02:43;;;;;;;37.88;7.45;;;20.10;67.60;;;;;;5062359;28;20093;-62
2024/01/30 02:05:10;;;;;;;53.40;8.38;;;20.00;68.30;;;;;;5061843;28;20076;-63
2024/01/30 02:07:37;;;;;;;49.33;7.30;;;19.90;68.40;;;;;;5065092;28;20081;-60
2024/01/30 02:10:03;;;;;;;38.88;8.00;;;19.70;69.20;;;;;;5063124;28;20084;-62
2024/01/30 02:12:30;;;;;;;47.88;8.73;;;19.60;69.60;;;;;;5060382;28;20088;-60
2024/01/30 02:14:57;;;;;;;37.80;8.32;;;19.60;70.00;;;;;;5064267;28;20111;-63
2024/01/30 02:17:24;;;;;;;47.28;8.15;;;19.50;70.20;;;;;;5063198;28;20073;-63
2024/01/30 02:19:51;;;;;;;42.97;8.15;;;19.40;70.40;;;;;;5062622;28;20084;-63
2024/01/30 02:22:19;;;;;;;48.35;8.98;;;19.30;70.60;;;;;;5060533;28;20115;-64
2024/01/30 02:24:46;;;;;;;45.85;9.00;;;19.30;71.30;;;;;;5063771;28;20065;-63
2024/01/30 02:27:12;;;;;;;62.85;9.38;;;19.10;71.70;;;;;;5063988;28;20516;-63
2024/01/30 02:29:39;;;;;;;51.30;9.93;;;19.10;72.20;;;;;;5062438;28;20072;-65
2024/01/30 02:32:06;;;;;;;67.47;8.65;;;19.00;72.60;;;;;;5063061;28;20072;-62
2024/01/30 02:34:32;;;;;;;66.97;8.95;;;18.90;72.80;;;;;;5061632;28;20509;-62
2024/01/30 02:36:59;;;;;;;52.42;9.40;;;18.90;73.40;;;;;;5057982;28;20131;-62
2024/01/30 02:39:25;;;;;;;65.60;9.27;;;18.80;73.10;;;;;;5060905;28;20405;-61
2024/01/30 02:41:52;;;;;;;48.00;8.32;;;18.80;73.70;;;;;;5061473;28;20520;-62
2024/01/30 02:44:18;;;;;;;67.85;9.07;;;18.70;73.90;;;;;;5060251;28;20224;-60
2024/01/30 02:46:45;;;;;;;63.85;10.13;;;18.70;74.60;;;;;;5059953;28;20069;-61
2024/01/30 02:49:11;;;;;;;66.10;10.02;;;18.60;75.30;;;;;;5058598;28;20078;-61
2024/01/30 02:51:38;;;;;;;69.07;10.10;;;18.50;76.00;;;;;;5064590;28;20113;-60
2024/01/30 02:54:04;;;;;;;72.93;9.95;;;18.40;76.60;;;;;;5064743;28;20592;-60
2024/01/30 02:56:31;;;;;;;64.57;10.38;;;18.40;77.10;;;;;;5061410;28;20118;-61
2024/01/30 02:58:57;;;;;;;87.45;11.38;;;18.30;78.00;;;;;;5064891;28;20134;-64
2024/01/30 03:01:24;;;;;;;82.10;12.25;;;18.30;79.00;;;;;;5060144;28;20505;-63
2024/01/30 03:03:51;;;;;;;76.03;11.80;;;18.20;79.70;;;;;;5061618;28;20108;-63
2024/01/30 03:06:19;;;;;;;86.90;12.50;;;18.20;80.00;;;;;;5061673;28;20076;-64
2024/01/30 03:08:46;;;;;;;81.40;13.68;;;18.20;80.50;;;;;;5062273;28;20540;-60
2024/01/30 03:11:13;;;;;;;91.32;12.95;;;18.10;81.40;;;;;;5060046;28;20080;-63
2024/01/30 03:13:40;;;;;;;64.30;13.52;;;18.00;81.00;;;;;;5060974;28;20418;-64
2024/01/30 03:16:08;;;;;;;109.10;15.07;;;18.00;81.30;;;;;;5059139;28;20077;-62
2024/01/30 03:18:35;;;;;;;100.05;14.27;;;18.00;81.40;;;;;;5061123;28;20072;-62
2024/01/30 03:21:01;;;;;;;100.75;15.48;;;18.00;81.50;;;;;;5059128;28;20111;-63
2024/01/30 03:23:28;;;;;;;70.72;11.68;;;17.90;81.90;;;;;;5061073;28;20109;-61
2024/01/30 03:25:54;;;;;;;93.90;13.60;;;17.90;82.50;;;;;;5062550;28;20104;-62
2024/01/30 03:28:21;;;;;;;86.57;13.68;;;17.80;82.70;;;;;;5059638;28;20077;-62
2024/01/30 03:30:47;;;;;;;85.55;13.77;;;17.70;82.70;;;;;;5062866;28;20555;-63
2024/01/30 03:33:14;;;;;;;65.93;12.57;;;17.70;83.10;;;;;;5062279;28;20073;-62
2024/01/30 03:35:40;;;;;;;82.97;14.30;;;17.70;84.20;;;;;;5059754;28;20518;-63
2024/01/30 03:38:07;;;;;;;96.32;16.85;;;17.60;85.20;;;;;;5061124;28;20122;-61
2024/01/30 03:40:34;;;;;;;121.45;22.85;;;17.60;85.60;;;;;;5057913;28;20073;-62
2024/01/30 03:43:00;;;;;;;130.02;26.30;;;17.60;85.70;;;;;;5060284;28;20117;-61
2024/01/30 03:45:26;;;;;;;223.05;61.47;;;17.50;87.00;;;;;;5059128;28;20087;-61
2024/01/30 03:47:53;;;;;;;245.55;73.40;;;17.40;87.60;;;;;;5060843;28;20069;-62
2024/01/30 03:50:19;;;;;;;219.68;61.38;;;17.40;86.50;;;;;;5059663;28;20095;-62
2024/01/30 03:52:46;;;;;;;216.48;58.45;;;17.40;87.30;;;;;;5059564;28;20156;-61
2024/01/30 03:55:12;;;;;;;168.55;47.60;;;17.50;87.70;;;;;;5060327;28;20077;-61
2024/01/30 03:57:39;;;;;;;134.32;36.03;;;17.40;87.60;;;;;;5064175;28;20939;-62
2024/01/30 04:00:06;;;;;;;127.05;29.58;;;17.30;88.70;;;;;;5057220;28;20077;-63
2024/01/30 04:02:32;;;;;;;120.10;24.02;;;17.30;87.80;;;;;;5061966;28;21236;-62
2024/01/30 04:04:59;;;;;;;106.38;23.50;;;17.20;87.80;;;;;;5058307;28;20084;-62
2024/01/30 04:07:25;;;;;;;124.35;22.98;;;17.10;88.20;;;;;;5058655;28;20505;-63
2024/01/30 04:09:52;;;;;;;90.72;20.67;;;17.10;88.00;;;;;;5063610;28;20073;-63
2024/01/30 04:12:19;;;;;;;96.40;20.73;;;17.10;88.60;;;;;;5062988;28;20179;-62
2024/01/30 04:14:45;;;;;;;105.30;21.88;;;17.00;89.20;;;;;;5061045;28;20073;-61
2024/01/30 04:17:12;;;;;;;118.90;22.65;;;17.00;89.60;;;;;;5060769;28;20080;-63
2024/01/30 04:19:39;;;;;;;100.85;20.05;;;17.00;90.10;;;;;;5063432;28;20077;-61
2024/01/30 04:22:05;;;;;;;125.78;22.25;;;17.00;90.10;;;;;;5059494;28;20147;-62
2024/01/30 04:24:32;;;;;;;105.10;19.85;;;16.90;90.40;;;;;;5059323;28;20083;-62
2024/01/30 04:26:59;;;;;;;95.88;19.77;;;16.90;90.50;;;;;;5061955;28;20524;-62
2024/01/30 04:29:25;;;;;;;96.30;18.70;;;16.80;90.50;;;;;;5062285;28;20528;-61
2024/01/30 04:31:52;;;;;;;93.25;19.85;;;16.70;91.10;;;;;;5057689;28;20073;-63
2024/01/30 04:34:18;;;;;;;80.40;19.10;;;16.70;91.60;;;;;;5056266;28;20083;-63
2024/01/30 04:36:46;;;;;;;94.45;19.52;;;16.60;91.50;;;;;;5056771;28;20085;-62
2024/01/30 04:39:12;;;;;;;96.25;18.23;;;16.60;91.70;;;;;;5058823;28;20529;-62
2024/01/30 04:41:39;;;;;;;95.75;17.85;;;16.50;91.70;;;;;;5062279;28;20109;-62
2024/01/30 04:44:06;;;;;;;106.32;20.20;;;16.50;91.90;;;;;;5059811;28;20108;-63
2024/01/30 04:46:36;;;;;;;88.65;18.52;;;16.40;91.60;;;;;;5061652;28;20135;-62
2024/01/30 04:49:03;;;;;;;95.55;18.75;;;16.40;91.60;;;;;;5060788;28;20081;-62
2024/01/30 04:51:30;;;;;;;126.63;20.70;;;16.40;91.70;;;;;;5060221;28;20100;-62
2024/01/30 04:53:56;;;;;;;83.32;18.75;;;16.30;91.70;;;;;;5061713;28;20081;-61
2024/01/30 04:56:23;;;;;;;106.95;22.52;;;16.30;91.90;;;;;;5063592;28;20211;-62
2024/01/30 04:58:49;;;;;;;91.47;20.88;;;16.30;91.90;;;;;;5060643;28;20127;-61
2024/01/30 05:01:17;;;;;;;89.82;21.02;;;16.30;92.10;;;;;;5063884;28;20081;-62
2024/01/30 05:03:44;;;;;;;124.00;23.88;;;16.20;92.60;;;;;;5065305;28;20567;-62
2024/01/30 05:06:10;;;;;;;104.40;23.98;;;16.20;92.90;;;;;;5063383;28;20094;-62
2024/01/30 05:08:37;;;;;;;108.45;26.00;;;16.10;93.00;;;;;;5065954;28;20156;-62
2024/01/30 05:11:05;;;;;;;95.95;24.77;;;16.20;93.20;;;;;;5062167;28;20080;-62
2024/01/30 05:13:32;;;;;;;120.05;24.23;;;16.10;93.50;;;;;;5064110;28;20076;-62
2024/01/30 05:15:59;;;;;;;105.78;23.17;;;16.00;93.50;;;;;;5060218;28;20078;-62
2024/01/30 05:18:25;;;;;;;115.80;23.67;;;16.00;93.60;;;;;;5062438;28;20425;-62
2024/01/30 05:20:52;;;;;;;108.63;22.73;;;16.00;93.40;;;;;;5064810;28;20189;-62
2024/01/30 05:23:18;;;;;;;130.52;25.35;;;16.00;93.60;;;;;;5063099;28;20101;-63
2024/01/30 05:25:44;;;;;;;106.82;24.05;;;16.00;94.20;;;;;;5062334;28;20556;-62
2024/01/30 05:28:11;;;;;;;118.60;24.35;;;16.00;94.30;;;;;;5059715;28;20069;-61
2024/01/30 05:30:37;;;;;;;125.82;29.33;;;16.00;94.30;;;;;;5062054;28;20082;-61
2024/01/30 05:33:04;;;;;;;122.35;28.75;;;16.00;94.50;;;;;;5066002;28;20550;-60
2024/01/30 05:35:31;;;;;;;114.70;28.48;;;15.90;94.20;;;;;;5061293;28;20082;-60
2024/01/30 05:37:57;;;;;;;140.13;29.20;;;15.80;94.70;;;;;;5066593;28;20077;-62
2024/01/30 05:40:24;;;;;;;139.45;29.95;;;15.70;95.10;;;;;;5063649;28;20073;-62
2024/01/30 05:42:50;;;;;;;138.40;30.33;;;15.70;95.00;;;;;;5060795;28;20155;-61
2024/01/30 05:45:17;;;;;;;133.07;30.67;;;15.70;95.30;;;;;;5061689;28;20085;-63
2024/01/30 05:47:43;;;;;;;121.05;29.42;;;15.70;95.20;;;;;;5062378;28;20107;-62
2024/01/30 05:50:10;;;;;;;137.48;33.38;;;15.60;95.40;;;;;;5061421;28;20077;-62
2024/01/30 05:52:37;;;;;;;148.43;30.48;;;15.60;95.50;;;;;;5064255;28;20119;-62
2024/01/30 05:55:04;;;;;;;138.90;30.52;;;15.60;95.30;;;;;;5060657;28;20077;-62
2024/01/30 05:57:30;;;;;;;153.38;33.88;;;15.60;95.60;;;;;;5066156;28;20077;-62
2024/01/30 05:59:57;;;;;;;135.25;31.65;;;15.60;95.70;;;;;;5057197;28;20080;-62
2024/01/30 06:02:23;;;;;;;130.68;30.15;;;15.60;95.80;;;;;;5060581;28;20099;-62
2024/01/30 06:04:50;;;;;;;116.28;31.63;;;15.50;95.90;;;;;;5061200;28;20160;-61
2024/01/30 06:07:17;;;;;;;135.23;31.80;;;15.60;96.10;;;;;;5061041;28;20081;-61
2024/01/30 06:09:44;;;;;;;135.30;32.80;;;15.50;96.30;;;;;;5061626;28;20085;-61
2024/01/30 06:12:12;;;;;;;127.57;32.20;;;15.50;97.00;;;;;;5062357;28;20081;-62
2024/01/30 06:14:38;;;;;;;145.00;34.15;;;15.40;97.40;;;;;;5059759;28;20073;-61
2024/01/30 06:17:05;;;;;;;161.85;35.33;;;15.40;97.70;;;;;;5066264;28;20077;-62
2024/01/30 06:19:31;;;;;;;154.00;38.80;;;15.40;97.90;;;;;;5060254;28;20081;-60
2024/01/30 06:21:58;;;;;;;187.68;43.75;;;15.30;97.90;;;;;;5065841;28;20214;-62
2024/01/30 06:24:24;;;;;;;183.18;42.83;;;15.30;97.60;;;;;;5062986;28;20112;-61
2024/01/30 06:26:51;;;;;;;189.73;45.58;;;15.20;97.60;;;;;;5062584;28;20922;-59
2024/01/30 06:29:18;;;;;;;175.60;44.15;;;15.20;97.90;;;;;;5063986;28;20435;-61
2024/01/30 06:31:44;;;;;;;175.20;43.35;;;15.10;97.90;;;;;;5060923;28;20073;-60
2024/01/30 06:34:11;;;;;;;163.00;41.85;;;15.10;98.10;;;;;;5059253;28;20578;-60
2024/01/30 06:36:38;;;;;;;140.68;36.30;;;15.10;97.90;;;;;;5062365;28;20080;-62
2024/01/30 06:39:05;;;;;;;157.23;38.20;;;15.10;97.90;;;;;;5059498;28;20088;-62
2024/01/30 06:41:32;;;;;;;178.82;39.97;;;15.20;98.00;;;;;;5060966;28;20195;-62
2024/01/30 06:43:58;;;;;;;172.98;39.25;;;15.20;98.00;;;;;;5058549;28;20948;-63
2024/01/30 06:46:25;;;;;;;183.75;40.78;;;15.20;98.30;;;;;;5061625;28;20081;-61
2024/01/30 06:48:52;;;;;;;154.05;38.53;;;15.20;98.50;;;;;;5062380;28;20164;-62
2024/01/30 06:51:18;;;;;;;156.23;38.42;;;15.10;98.50;;;;;;5060382;28;20069;-63
2024/01/30 06:53:45;;;;;;;155.90;38.28;;;15.10;99.00;;;;;;5061179;28;20717;-63
2024/01/30 06:56:11;;;;;;;157.10;37.97;;;15.10;99.70;;;;;;5062613;28;20084;-61
2024/01/30 06:58:38;;;;;;;146.48;36.08;;;15.10;99.40;;;;;;5061566;28;20073;-63
2024/01/30 07:01:06;;;;;;;142.55;34.63;;;15.00;99.80;;;;;;5064048;28;20076;-61
2024/01/30 07:03:33;;;;;;;160.82;51.88;;;15.00;99.90;;;;;;5061003;28;20159;-63
2024/01/30 07:05:59;;;;;;;153.15;35.70;;;15.00;99.70;;;;;;5061724;28;20432;-62
2024/01/30 07:08:26;;;;;;;136.38;35.22;;;14.90;99.70;;;;;;5068001;28;20072;-67
2024/01/30 07:10:55;;;;;;;153.18;38.20;;;15.00;99.80;;;;;;5061910;28;20689;-62
2024/01/30 07:13:21;;;;;;;190.82;39.25;;;15.00;99.90;;;;;;5060243;28;20085;-62
2024/01/30 07:15:48;;;;;;;135.35;34.92;;;14.90;99.90;;;;;;5060830;28;20608;-60
2024/01/30 07:18:14;;;;;;;156.15;37.70;;;14.90;99.90;;;;;;5059583;28;20075;-64
2024/01/30 07:20:46;;;;;;;147.85;38.70;;;14.90;99.90;;;;;;5061074;28;20080;-63
2024/01/30 07:23:15;;;;;;;154.13;37.83;;;14.90;99.90;;;;;;5060844;28;20484;-62
2024/01/30 07:25:42;;;;;;;156.10;38.47;;;14.80;99.90;;;;;;5061730;28;20150;-63
2024/01/30 07:28:10;;;;;;;160.32;40.05;;;14.80;99.90;;;;;;5063402;28;20084;-62
2024/01/30 07:30:37;;;;;;;140.13;39.85;;;14.80;99.90;;;;;;5063243;28;20069;-63
2024/01/30 07:33:03;;;;;;;152.90;41.60;;;14.70;99.90;;;;;;5060550;28;20104;-63
2024/01/30 07:35:30;;;;;;;142.52;40.10;;;14.70;99.90;;;;;;5059371;28;20088;-62
2024/01/30 07:37:57;;;;;;;143.65;41.03;;;14.70;99.90;;;;;;5065687;28;20073;-63
2024/01/30 07:40:24;;;;;;;147.73;41.17;;;14.70;99.90;;;;;;5062577;28;20077;-63
2024/01/30 07:42:50;;;;;;;140.10;41.50;;;14.70;99.90;;;;;;5065243;28;20124;-63
2024/01/30 07:45:22;;;;;;;138.48;38.92;;;14.60;99.90;;;;;;5058368;28;20085;-62
2024/01/30 07:47:52;;;;;;;176.80;43.25;;;14.50;99.90;;;;;;5060134;28;20524;-62
2024/01/30 07:50:18;;;;;;;154.15;40.13;;;14.60;99.90;;;;;;5064564;28;20099;-62
2024/01/30 07:52:45;;;;;;;150.20;43.85;;;14.60;99.90;;;;;;5063087;28;20069;-62
2024/01/30 07:55:12;;;;;;;145.48;41.83;;;14.50;99.90;;;;;;5062082;28;20085;-62
2024/01/30 07:57:42;;;;;;;146.18;40.67;;;14.50;99.90;;;;;;5061936;28;20088;-62
2024/01/30 08:00:09;;;;;;;155.05;40.55;;;14.60;99.90;;;;;;5064309;28;20069;-62
2024/01/30 08:02:36;;;;;;;154.55;44.08;;;14.60;99.90;;;;;;5061199;28;20173;-62
2024/01/30 08:05:03;;;;;;;153.90;44.33;;;14.50;99.90;;;;;;5064467;28;20987;-62
2024/01/30 08:07:30;;;;;;;125.80;42.47;;;14.40;99.90;;;;;;5063200;28;20127;-62
2024/01/30 08:09:56;;;;;;;152.02;42.25;;;14.40;99.90;;;;;;5060378;28;20077;-62
2024/01/30 08:12:23;;;;;;;152.90;44.70;;;14.40;99.90;;;;;;5065841;28;20069;-63
2024/01/30 08:14:50;;;;;;;158.00;42.10;;;14.40;99.90;;;;;;5059624;28;20076;-62
2024/01/30 08:17:16;;;;;;;145.95;43.72;;;14.40;99.90;;;;;;5060421;28;20081;-62
2024/01/30 08:19:43;;;;;;;158.45;47.72;;;14.20;99.90;;;;;;5057780;28;20088;-63
2024/01/30 08:22:09;;;;;;;157.23;44.08;;;14.20;99.90;;;;;;5059233;28;20070;-62
2024/01/30 08:24:35;;;;;;;173.38;47.13;;;14.20;99.90;;;;;;5060438;28;20104;-62
2024/01/30 08:27:02;;;;;;;169.63;45.22;;;14.20;99.90;;;;;;5064812;28;20085;-62
2024/01/30 08:29:29;;;;;;;167.90;49.78;;;14.20;99.90;;;;;;5065720;28;20443;-62
2024/01/30 08:31:55;;;;;;;165.93;47.38;;;14.10;99.90;;;;;;5060316;28;20085;-63
2024/01/30 08:34:22;;;;;;;176.32;49.25;;;14.10;99.90;;;;;;5063078;28;20156;-63
2024/01/30 08:36:48;;;;;;;173.45;48.42;;;14.10;99.90;;;;;;5064402;28;20084;-63
2024/01/30 08:39:15;;;;;;;159.75;45.85;;;14.00;99.90;;;;;;5062646;28;20104;-63
2024/01/30 08:41:41;;;;;;;135.00;44.75;;;14.00;99.90;;;;;;5064553;28;20215;-63
2024/01/30 08:44:08;;;;;;;146.85;44.85;;;14.00;99.90;;;;;;5063313;28;20570;-63
2024/01/30 08:46:34;;;;;;;159.50;46.08;;;14.00;99.90;;;;;;5062775;28;20108;-63
2024/01/30 08:49:01;;;;;;;157.57;45.75;;;13.90;99.90;;;;;;5061271;28;20073;-63
2024/01/30 08:51:27;;;;;;;153.23;45.65;;;13.80;99.90;;;;;;5061714;28;20073;-63
2024/01/30 08:53:54;;;;;;;151.85;45.90;;;13.80;99.90;;;;;;5061727;28;20073;-63
2024/01/30 08:56:20;;;;;;;167.55;49.00;;;13.80;99.90;;;;;;5063118;28;20607;-63
2024/01/30 08:58:47;;;;;;;166.20;45.50;;;13.80;99.90;;;;;;5062480;28;20080;-63
2024/01/30 09:01:14;;;;;;;155.35;45.05;;;13.80;99.90;;;;;;5065048;28;20077;-62
2024/01/30 09:03:42;;;;;;;158.32;43.20;;;13.80;99.90;;;;;;5064334;28;20127;-62
2024/01/30 09:06:12;;;;;;;136.23;39.97;;;13.80;99.90;;;;;;5066567;28;20073;-61
2024/01/30 09:08:39;;;;;;;126.78;39.50;;;13.80;99.90;;;;;;5061424;28;20168;-62
2024/01/30 09:11:13;;;;;;;111.90;34.08;;;13.80;99.90;;;;;;5062766;28;20073;-62
2024/01/30 09:13:39;;;;;;;95.65;33.22;;;13.80;99.90;;;;;;5063327;28;20089;-62
2024/01/30 09:16:06;;;;;;;94.57;30.90;;;13.80;99.90;;;;;;5065581;28;20073;-62
2024/01/30 09:18:33;;;;;;;93.68;27.15;;;13.70;99.90;;;;;;5059845;28;20448;-62
2024/01/30 09:20:59;;;;;;;79.20;26.45;;;13.70;99.90;;;;;;5063857;28;20076;-62
2024/01/30 09:23:28;;;;;;;71.47;24.80;;;13.60;99.90;;;;;;5065864;28;20107;-62
2024/01/30 09:25:55;;;;;;;76.72;24.80;;;13.70;99.90;;;;;;5063206;28;20164;-62
2024/01/30 09:28:21;;;;;;;76.30;22.80;;;13.60;99.90;;;;;;5063392;28;20096;-62
2024/01/30 09:30:48;;;;;;;73.85;22.10;;;13.50;99.90;;;;;;5062233;28;21800;-62
2024/01/30 09:33:14;;;;;;;63.92;22.40;;;13.40;99.90;;;;;;5064045;28;20921;-62
2024/01/30 09:35:41;;;;;;;66.28;20.48;;;13.40;99.90;;;;;;5060840;28;20088;-62
2024/01/30 09:38:07;;;;;;;63.92;18.25;;;13.40;99.90;;;;;;5064182;28;20078;-62
2024/01/30 09:40:34;;;;;;;51.67;16.23;;;13.50;99.90;;;;;;5066814;28;20185;-63
2024/01/30 09:43:01;;;;;;;48.53;15.27;;;13.50;99.90;;;;;;5061025;28;20120;-62
2024/01/30 09:45:27;;;;;;;48.97;14.38;;;13.40;99.90;;;;;;5062383;28;20519;-63
2024/01/30 09:47:54;;;;;;;39.40;15.00;;;13.40;99.90;;;;;;5065488;28;20080;-62
2024/01/30 09:50:21;;;;;;;37.42;13.48;;;13.50;99.90;;;;;;5060432;28;20100;-62
2024/01/30 09:52:48;;;;;;;26.40;10.20;;;13.50;99.90;;;;;;5062446;28;20084;-64
2024/01/30 09:55:14;;;;;;;46.42;24.15;;;13.40;99.90;;;;;;5059723;28;20073;-62
2024/01/30 09:57:42;;;;;;;20.83;6.72;;;13.40;99.90;;;;;;5061746;28;20134;-62
2024/01/30 10:00:09;;;;;;;18.45;6.22;;;13.40;99.90;;;;;;5063203;28;20087;-62
2024/01/30 10:02:36;;;;;;;19.42;5.50;;;13.40;99.90;;;;;;5060897;28;20087;-62
2024/01/30 10:05:03;;;;;;;10.77;4.82;;;13.30;99.90;;;;;;5062273;28;20081;-62
2024/01/30 10:07:30;;;;;;;11.30;4.32;;;13.20;99.90;;;;;;5055679;28;20076;-62
2024/01/30 10:09:57;;;;;;;12.25;4.45;;;13.20;99.90;;;;;;5065214;28;20077;-62
2024/01/30 10:12:26;;;;;;;13.50;4.53;;;13.20;99.90;;;;;;5062758;28;20207;-62
2024/01/30 10:14:52;;;;;;;10.32;4.65;;;13.20;99.90;;;;;;5061932;28;20073;-62
2024/01/30 10:17:21;;;;;;;13.73;5.80;;;13.30;99.90;;;;;;5061000;28;20104;-62
2024/01/30 10:19:47;;;;;;;14.82;6.57;;;13.20;99.90;;;;;;5062083;28;20174;-63
2024/01/30 10:22:14;;;;;;;17.60;6.57;;;13.30;99.90;;;;;;5062133;28;20175;-62
2024/01/30 10:24:41;;;;;;;19.60;7.00;;;13.20;99.90;;;;;;5062437;28;20109;-62
2024/01/30 10:27:07;;;;;;;14.35;7.07;;;13.20;99.90;;;;;;5061547;28;20112;-62
2024/01/30 10:29:34;;;;;;;29.30;7.05;;;13.10;99.90;;;;;;5061178;28;20943;-63
2024/01/30 10:32:05;;;;;;;21.10;7.40;;;13.10;99.90;;;;;;5062994;28;20100;-63
2024/01/30 10:34:33;;;;;;;22.33;6.38;;;13.00;99.90;;;;;;5060407;28;20108;-62
2024/01/30 10:37:12;;;;;;;16.88;6.68;;;13.00;99.90;;;;;;5062925;28;20560;-62
2024/01/30 10:39:40;;;;;;;17.80;6.57;;;13.10;99.90;;;;;;5063278;28;20571;-62
2024/01/30 10:42:11;;;;;;;19.65;6.25;;;13.10;99.90;;;;;;5061639;28;20567;-61
2024/01/30 10:44:47;;;;;;;18.65;6.47;;;13.10;99.90;;;;;;5060274;28;20158;-62
2024/01/30 10:47:16;;;;;;;14.13;5.97;;;13.10;99.90;;;;;;5065050;28;20081;-62
2024/01/30 10:49:43;;;;;;;13.10;5.72;;;13.10;99.90;;;;;;5061738;28;20081;-61
2024/01/30 10:52:12;;;;;;;12.10;5.70;;;13.00;99.90;;;;;;5062401;28;20065;-64
2024/01/30 10:54:44;;;;;;;18.45;5.57;;;13.00;99.90;;;;;;5061537;28;20512;-62
2024/01/30 10:57:12;;;;;;;11.90;5.40;;;12.90;99.90;;;;;;5061811;28;20064;-63
2024/01/30 10:59:40;;;;;;;11.60;5.30;;;12.90;99.90;;;;;;5061454;28;20080;-61
2024/01/30 11:02:07;;;;;;;13.25;5.07;;;12.80;99.90;;;;;;5061006;28;20445;-62
2024/01/30 11:04:42;;;;;;;13.63;4.85;;;12.90;99.90;;;;;;5059641;28;20111;-62
2024/01/30 11:07:34;;;;;;;15.60;4.88;;;12.90;99.90;;;;;;5062476;28;20532;-61
2024/01/30 11:10:01;;;;;;;13.70;4.47;;;12.90;99.90;;;;;;5056902;28;20154;-61
2024/01/30 11:12:27;;;;;;;;;;;12.90;99.90;;;;;;5060747;28;20539;-61
2024/01/30 11:15:07;;;;;;;9.52;4.03;;;13.00;99.90;;;;;;5061807;28;20000;-61
2024/01/30 11:17:53;;;;;;;8.45;3.35;;;13.10;99.90;;;;;;5059004;28;20089;-63
2024/01/30 11:20:32;;;;;;;7.57;3.87;;;13.20;99.90;;;;;;5063178;28;20190;-62
2024/01/30 11:23:02;;;;;;;6.57;3.13;;;13.20;99.90;;;;;;5057210;28;21584;-62
2024/01/30 11:25:28;;;;;;;7.13;2.58;;;13.30;99.90;;;;;;5064701;28;20813;-63
2024/01/30 11:27:55;;;;;;;4.97;2.45;;;13.30;99.90;;;;;;5060979;28;20627;-62
2024/01/30 11:30:23;;;;;;;9.15;3.10;;;13.30;99.90;;;;;;5061760;28;20114;-62
2024/01/30 11:33:32;;;;;;;9.15;3.30;;;13.20;99.90;;;;;;5057039;28;20080;-62
2024/01/30 11:35:59;;;;;;;9.95;3.03;;;13.20;99.90;;;;;;5053847;28;20085;-63
2024/01/30 11:38:30;;;;;;;8.85;3.03;;;13.20;99.90;;;;;;5060770;28;20111;-62
2024/01/30 11:40:57;;;;;;;8.88;3.15;;;13.10;99.90;;;;;;5059258;28;20099;-62
2024/01/30 11:43:24;;;;;;;5.47;2.65;;;13.10;99.90;;;;;;5062301;28;20220;-62
2024/01/30 11:45:51;;;;;;;8.80;2.55;;;13.20;99.90;;;;;;5060960;28;20081;-63
2024/01/30 11:48:17;;;;;;;6.45;2.47;;;13.10;99.90;;;;;;5058456;28;20081;-63
2024/01/30 11:50:44;;;;;;;5.70;2.00;;;13.20;99.90;;;;;;5063679;28;20145;-62
2024/01/30 11:53:11;;;;;;;4.93;2.30;;;13.10;99.90;;;;;;5059641;28;20089;-63
2024/01/30 11:55:38;;;;;;;3.95;2.22;;;13.10;99.90;;;;;;5058345;28;20165;-62
2024/01/30 11:58:04;;;;;;;5.10;2.30;;;13.00;99.90;;;;;;5059013;28;20080;-63
2024/01/30 12:00:32;;;;;;;5.60;2.28;;;13.00;99.90;;;;;;5060163;28;20108;-63
2024/01/30 12:03:00;;;;;;;4.28;2.03;;;12.90;99.90;;;;;;5064407;28;20646;-63
2024/01/30 12:05:27;;;;;;;6.47;2.47;;;12.90;99.90;;;;;;5063296;28;21106;-61
2024/01/30 12:07:54;;;;;;;5.95;2.10;;;12.90;99.90;;;;;;5065086;28;20086;-61
2024/01/30 12:10:21;;;;;;;10.23;2.03;;;12.90;99.90;;;;;;5069263;28;20084;-62
2024/01/30 12:12:52;;;;;;;6.97;2.22;;;12.80;99.90;;;;;;5065768;28;20073;-62
2024/01/30 12:15:21;;;;;;;4.90;2.10;;;12.80;99.90;;;;;;5062997;28;20100;-61
2024/01/30 12:17:48;;;;;;;6.50;2.15;;;12.80;99.90;;;;;;5064255;28;20078;-61
2024/01/30 12:20:17;;;;;;;5.85;2.50;;;12.80;99.90;;;;;;5064152;28;20076;-62
2024/01/30 12:22:45;;;;;;;5.20;2.05;;;12.70;99.90;;;;;;5065411;28;20123;-61
2024/01/30 12:25:14;;;;;;;9.73;2.80;;;12.70;99.90;;;;;;5066221;28;20088;-63
2024/01/30 12:27:43;;;;;;;7.82;2.95;;;12.70;99.90;;;;;;5064329;28;20080;-62